createdAt,value
2018-08-24T00:00:57.020Z,20.56
2018-08-24T00:01:56.991Z,20.57
2018-08-24T00:02:56.972Z,20.56
2018-08-24T00:03:56.948Z,20.34
2018-08-24T00:04:56.949Z,20.19
2018-08-24T00:05:56.892Z,20.22
2018-08-24T00:06:56.879Z,20.22
2018-08-24T00:07:56.847Z,20.07
2018-08-24T00:08:56.830Z,19.92
2018-08-24T00:09:56.802Z,19.86
2018-08-24T00:10:56.780Z,19.79
2018-08-24T00:11:56.760Z,19.78
2018-08-24T00:12:56.733Z,19.70
2018-08-24T00:13:57.988Z,19.63
2018-08-24T00:14:56.684Z,19.45
2018-08-24T00:15:56.656Z,19.49
2018-08-24T00:16:56.634Z,19.53
2018-08-24T00:17:56.613Z,19.49
2018-08-24T00:18:56.587Z,19.46
2018-08-24T00:19:56.569Z,19.31
2018-08-24T00:20:56.539Z,19.30
2018-08-24T00:21:56.523Z,19.32
2018-08-24T00:22:56.499Z,19.35
2018-08-24T00:23:56.471Z,19.25
2018-08-24T00:24:56.441Z,19.27
2018-08-24T00:25:56.421Z,19.34
2018-08-24T00:26:56.401Z,19.17
2018-08-24T00:27:56.367Z,19.27
2018-08-24T00:28:56.351Z,19.30
2018-08-24T00:29:56.329Z,19.20
2018-08-24T00:30:56.296Z,19.24
2018-08-24T00:31:56.273Z,19.23
2018-08-24T00:32:56.247Z,19.20
2018-08-24T00:33:56.230Z,19.19
2018-08-24T00:34:56.200Z,19.12
2018-08-24T00:35:56.180Z,19.15
2018-08-24T00:36:56.159Z,19.24
2018-08-24T00:37:56.129Z,19.20
2018-08-24T00:38:56.109Z,19.19
2018-08-24T00:39:56.083Z,19.05
2018-08-24T00:40:56.057Z,19.00
2018-08-24T00:41:56.036Z,18.97
2018-08-24T00:42:56.012Z,19.07
2018-08-24T00:43:55.988Z,19.10
2018-08-24T00:44:55.972Z,19.12
2018-08-24T00:45:55.938Z,19.13
2018-08-24T00:46:55.911Z,19.02
2018-08-24T00:47:55.890Z,18.97
2018-08-24T00:48:55.867Z,18.97
2018-08-24T00:49:55.834Z,18.96
2018-08-24T00:50:55.825Z,18.97
2018-08-24T00:51:55.793Z,18.99
2018-08-24T00:52:55.765Z,19.10
2018-08-24T00:53:55.751Z,19.00
2018-08-24T00:54:55.719Z,18.93
2018-08-24T00:55:55.695Z,18.90
2018-08-24T00:56:55.671Z,18.94
2018-08-24T00:57:55.646Z,18.87
2018-08-24T00:58:55.623Z,18.91
2018-08-24T00:59:55.600Z,18.90
2018-08-24T01:00:55.573Z,18.91
2018-08-24T01:01:55.554Z,18.97
2018-08-24T01:02:55.530Z,18.97
2018-08-24T01:03:55.500Z,19.06
2018-08-24T01:04:55.473Z,18.91
2018-08-24T01:05:55.458Z,18.89
2018-08-24T01:06:55.430Z,18.96
2018-08-24T01:07:55.405Z,18.97
2018-08-24T01:08:55.383Z,18.99
2018-08-24T01:09:55.353Z,18.96
2018-08-24T01:10:55.344Z,18.86
2018-08-24T01:11:55.307Z,18.91
2018-08-24T01:12:55.289Z,18.94
2018-08-24T01:13:55.260Z,18.90
2018-08-24T01:14:55.235Z,18.87
2018-08-24T01:15:55.217Z,18.93
2018-08-24T01:16:55.186Z,18.96
2018-08-24T01:17:55.167Z,18.86
2018-08-24T01:18:55.139Z,18.76
2018-08-24T01:19:55.126Z,18.90
2018-08-24T01:20:55.090Z,18.91
2018-08-24T01:21:55.062Z,18.87
2018-08-24T01:22:55.047Z,18.93
2018-08-24T01:23:55.017Z,18.78
2018-08-24T01:24:54.998Z,18.72
2018-08-24T01:25:54.968Z,18.79
2018-08-24T01:26:54.952Z,18.79
2018-08-24T01:27:54.921Z,18.69
2018-08-24T01:28:54.904Z,18.74
2018-08-24T01:29:54.877Z,18.72
2018-08-24T01:30:54.854Z,18.86
2018-08-24T01:31:54.825Z,18.75
2018-08-24T01:32:54.804Z,18.79
2018-08-24T01:33:54.780Z,18.78
2018-08-24T01:34:54.748Z,18.75
2018-08-24T01:35:54.729Z,18.65
2018-08-24T01:36:54.700Z,18.53
2018-08-24T01:37:54.689Z,18.47
2018-08-24T01:38:54.654Z,18.47
2018-08-24T01:39:54.635Z,18.47
2018-08-24T01:40:54.602Z,18.35
2018-08-24T01:41:54.579Z,18.38
2018-08-24T01:42:54.564Z,18.35
2018-08-24T01:43:54.532Z,18.38
2018-08-24T01:44:54.516Z,18.47
2018-08-24T01:45:54.489Z,18.32
2018-08-24T01:46:54.462Z,18.53
2018-08-24T01:47:54.442Z,18.45
2018-08-24T01:48:54.408Z,18.45
2018-08-24T01:49:54.390Z,18.49
2018-08-24T01:50:54.363Z,18.56
2018-08-24T01:51:54.343Z,18.69
2018-08-24T01:52:54.323Z,18.66
2018-08-24T01:53:54.291Z,18.54
2018-08-24T01:54:54.264Z,18.68
2018-08-24T01:55:54.241Z,18.59
2018-08-24T01:56:54.740Z,18.60
2018-08-24T01:57:54.192Z,18.65
2018-08-24T01:58:54.210Z,18.65
2018-08-24T01:59:54.148Z,18.61
2018-08-24T02:00:54.124Z,18.65
2018-08-24T02:01:54.097Z,18.63
2018-08-24T02:02:54.072Z,18.65
2018-08-24T02:03:54.051Z,18.68
2018-08-24T02:04:54.021Z,18.65
2018-08-24T02:05:54.003Z,18.69
2018-08-24T02:06:53.972Z,18.74
2018-08-24T02:07:53.955Z,18.69
2018-08-24T02:08:53.921Z,18.69
2018-08-24T02:09:53.906Z,18.60
2018-08-24T02:10:53.876Z,18.56
2018-08-24T02:11:53.852Z,18.61
2018-08-24T02:12:53.832Z,18.57
2018-08-24T02:13:53.808Z,18.59
2018-08-24T02:14:53.782Z,18.63
2018-08-24T02:15:53.756Z,18.66
2018-08-24T02:16:53.737Z,18.60
2018-08-24T02:17:53.706Z,18.59
2018-08-24T02:18:53.686Z,18.59
2018-08-24T02:19:53.659Z,18.59
2018-08-24T02:20:53.636Z,18.60
2018-08-24T02:21:53.606Z,18.59
2018-08-24T02:22:53.590Z,18.66
2018-08-24T02:23:53.561Z,18.65
2018-08-24T02:24:53.543Z,18.65
2018-08-24T02:25:53.515Z,18.65
2018-08-24T02:26:53.488Z,18.60
2018-08-24T02:27:53.467Z,18.56
2018-08-24T02:28:53.441Z,18.51
2018-08-24T02:29:53.421Z,18.50
2018-08-24T02:30:53.390Z,18.32
2018-08-24T02:31:53.374Z,18.38
2018-08-24T02:32:53.344Z,18.32
2018-08-24T02:33:53.321Z,18.24
2018-08-24T02:34:53.296Z,18.17
2018-08-24T02:35:53.269Z,18.26
2018-08-24T02:36:53.252Z,18.16
2018-08-24T02:37:53.229Z,18.05
2018-08-24T02:38:53.196Z,18.16
2018-08-24T02:39:53.179Z,18.06
2018-08-24T02:40:53.151Z,18.11
2018-08-24T02:41:53.123Z,18.08
2018-08-24T02:42:53.103Z,18.03
2018-08-24T02:43:53.098Z,17.98
2018-08-24T02:44:53.059Z,17.98
2018-08-24T02:45:53.032Z,17.96
2018-08-24T02:46:53.003Z,17.99
2018-08-24T02:47:52.975Z,17.95
2018-08-24T02:48:52.960Z,17.95
2018-08-24T02:49:52.930Z,17.94
2018-08-24T02:50:52.904Z,17.94
2018-08-24T02:51:52.880Z,17.90
2018-08-24T02:52:52.862Z,17.94
2018-08-24T02:53:52.838Z,17.90
2018-08-24T02:54:52.807Z,17.86
2018-08-24T02:55:52.784Z,17.88
2018-08-24T02:56:52.764Z,17.90
2018-08-24T02:57:52.739Z,17.86
2018-08-24T02:58:52.711Z,17.90
2018-08-24T02:59:52.685Z,17.86
2018-08-24T03:00:52.667Z,17.86
2018-08-24T03:01:52.635Z,17.79
2018-08-24T03:02:52.618Z,17.92
2018-08-24T03:03:52.593Z,17.84
2018-08-24T03:04:52.564Z,17.86
2018-08-24T03:05:52.543Z,17.76
2018-08-24T03:06:52.513Z,17.76
2018-08-24T03:07:52.492Z,17.74
2018-08-24T03:08:52.463Z,17.83
2018-08-24T03:09:52.446Z,17.81
2018-08-24T03:10:52.414Z,17.79
2018-08-24T03:11:52.396Z,17.81
2018-08-24T03:12:52.370Z,17.77
2018-08-24T03:13:52.347Z,17.74
2018-08-24T03:14:52.318Z,17.79
2018-08-24T03:15:52.300Z,17.66
2018-08-24T03:16:52.267Z,17.69
2018-08-24T03:17:52.246Z,17.66
2018-08-24T03:18:52.226Z,17.62
2018-08-24T03:19:52.200Z,17.62
2018-08-24T03:20:52.171Z,17.65
2018-08-24T03:21:52.146Z,17.68
2018-08-24T03:22:52.127Z,17.62
2018-08-24T03:23:52.105Z,17.74
2018-08-24T03:24:52.077Z,17.62
2018-08-24T03:25:52.050Z,17.71
2018-08-24T03:26:52.029Z,17.76
2018-08-24T03:27:52.002Z,17.79
2018-08-24T03:28:51.980Z,17.83
2018-08-24T03:29:51.949Z,17.83
2018-08-24T03:30:51.932Z,17.80
2018-08-24T03:31:51.901Z,17.84
2018-08-24T03:32:51.884Z,17.84
2018-08-24T03:33:51.857Z,17.87
2018-08-24T03:34:51.833Z,17.83
2018-08-24T03:35:51.807Z,17.88
2018-08-24T03:36:51.783Z,17.88
2018-08-24T03:37:51.760Z,17.87
2018-08-24T03:38:51.732Z,17.86
2018-08-24T03:39:51.711Z,17.83
2018-08-24T03:40:51.687Z,17.80
2018-08-24T03:41:51.663Z,17.80
2018-08-24T03:42:51.636Z,17.76
2018-08-24T03:43:51.608Z,17.81
2018-08-24T03:44:51.586Z,17.81
2018-08-24T03:45:51.621Z,17.80
2018-08-24T03:46:51.537Z,17.77
2018-08-24T03:47:51.515Z,17.71
2018-08-24T03:48:51.485Z,17.74
2018-08-24T03:49:51.468Z,17.76
2018-08-24T03:50:51.438Z,17.66
2018-08-24T03:51:51.413Z,17.76
2018-08-24T03:52:51.421Z,17.74
2018-08-24T03:53:51.365Z,17.79
2018-08-24T03:54:51.337Z,17.76
2018-08-24T03:55:51.315Z,17.71
2018-08-24T03:56:51.293Z,17.71
2018-08-24T03:57:51.267Z,17.68
2018-08-24T03:58:51.239Z,17.68
2018-08-24T03:59:51.213Z,17.68
2018-08-24T04:00:51.200Z,17.79
2018-08-24T04:01:51.166Z,17.80
2018-08-24T04:02:51.147Z,17.81
2018-08-24T04:03:51.121Z,17.80
2018-08-24T04:04:51.097Z,17.86
2018-08-24T04:05:51.073Z,17.87
2018-08-24T04:06:51.042Z,17.86
2018-08-24T04:07:51.021Z,17.88
2018-08-24T04:08:50.996Z,17.88
2018-08-24T04:09:50.975Z,17.84
2018-08-24T04:10:50.943Z,17.79
2018-08-24T04:11:50.925Z,17.81
2018-08-24T04:12:50.950Z,17.84
2018-08-24T04:13:50.870Z,17.87
2018-08-24T04:14:50.856Z,17.79
2018-08-24T04:15:50.822Z,17.81
2018-08-24T04:16:50.801Z,17.86
2018-08-24T04:17:50.780Z,17.79
2018-08-24T04:18:50.748Z,17.74
2018-08-24T04:19:50.742Z,17.86
2018-08-24T04:20:50.709Z,17.87
2018-08-24T04:21:50.678Z,17.83
2018-08-24T04:22:50.651Z,17.90
2018-08-24T04:23:50.630Z,17.90
2018-08-24T04:24:50.605Z,17.88
2018-08-24T04:25:50.732Z,17.92
2018-08-24T04:26:50.552Z,17.81
2018-08-24T04:27:50.527Z,17.83
2018-08-24T04:28:50.512Z,17.88
2018-08-24T04:29:50.479Z,17.94
2018-08-24T04:30:50.458Z,17.88
2018-08-24T04:31:50.437Z,17.90
2018-08-24T04:32:50.419Z,17.94
2018-08-24T04:33:50.387Z,17.90
2018-08-24T04:34:50.413Z,17.88
2018-08-24T04:35:50.334Z,17.87
2018-08-24T04:36:50.309Z,17.92
2018-08-24T04:37:50.280Z,17.87
2018-08-24T04:38:50.278Z,17.90
2018-08-24T04:39:50.235Z,17.79
2018-08-24T04:40:50.207Z,17.88
2018-08-24T04:41:50.183Z,17.86
2018-08-24T04:42:50.163Z,17.86
2018-08-24T04:43:50.135Z,17.86
2018-08-24T04:44:50.112Z,17.87
2018-08-24T04:45:50.091Z,17.86
2018-08-24T04:46:50.065Z,17.88
2018-08-24T04:47:50.036Z,17.94
2018-08-24T04:48:50.017Z,17.88
2018-08-24T04:49:49.989Z,17.87
2018-08-24T04:50:49.984Z,17.87
2018-08-24T04:51:49.937Z,17.87
2018-08-24T04:52:49.912Z,17.88
2018-08-24T04:53:49.896Z,17.84
2018-08-24T04:54:49.863Z,17.90
2018-08-24T04:55:49.838Z,17.90
2018-08-24T04:56:49.817Z,17.90
2018-08-24T04:57:49.791Z,17.88
2018-08-24T04:58:49.773Z,17.86
2018-08-24T04:59:49.747Z,17.84
2018-08-24T05:00:49.733Z,17.92
2018-08-24T05:01:49.701Z,17.92
2018-08-24T05:02:49.677Z,17.95
2018-08-24T05:03:49.642Z,17.94
2018-08-24T05:04:49.621Z,17.99
2018-08-24T05:05:49.643Z,18.01
2018-08-24T05:06:49.571Z,18.06
2018-08-24T05:07:49.551Z,18.02
2018-08-24T05:08:49.569Z,18.08
2018-08-24T05:09:49.500Z,18.11
2018-08-24T05:10:49.473Z,18.16
2018-08-24T05:11:49.444Z,18.17
2018-08-24T05:12:49.420Z,18.10
2018-08-24T05:13:49.404Z,18.13
2018-08-24T05:14:49.372Z,18.08
2018-08-24T05:15:49.348Z,18.11
2018-08-24T05:16:49.327Z,18.13
2018-08-24T05:17:49.299Z,18.16
2018-08-24T05:18:49.280Z,18.10
2018-08-24T05:19:49.255Z,18.23
2018-08-24T05:20:49.226Z,18.10
2018-08-24T05:21:49.208Z,18.13
2018-08-24T05:22:49.177Z,18.16
2018-08-24T05:23:49.157Z,18.16
2018-08-24T05:24:49.169Z,18.14
2018-08-24T05:25:49.104Z,18.13
2018-08-24T05:26:49.075Z,18.16
2018-08-24T05:27:49.059Z,18.14
2018-08-24T05:28:49.033Z,18.13
2018-08-24T05:29:49.005Z,18.19
2018-08-24T05:30:48.987Z,18.19
2018-08-24T05:31:48.965Z,18.21
2018-08-24T05:32:48.932Z,18.21
2018-08-24T05:33:48.993Z,18.27
2018-08-24T05:34:48.883Z,18.34
2018-08-24T05:35:48.864Z,18.34
2018-08-24T05:36:48.841Z,18.39
2018-08-24T05:37:48.815Z,18.38
2018-08-24T05:38:48.782Z,18.35
2018-08-24T05:39:48.761Z,18.31
2018-08-24T05:40:48.737Z,18.36
2018-08-24T05:41:48.713Z,18.35
2018-08-24T05:42:48.689Z,18.31
2018-08-24T05:43:48.668Z,18.38
2018-08-24T05:44:48.646Z,18.50
2018-08-24T05:45:48.615Z,18.42
2018-08-24T05:46:48.595Z,18.42
2018-08-24T05:47:48.565Z,18.39
2018-08-24T05:48:48.591Z,18.41
2018-08-24T05:49:48.520Z,18.41
2018-08-24T05:50:48.500Z,18.45
2018-08-24T05:51:48.466Z,18.53
2018-08-24T05:52:48.450Z,18.51
2018-08-24T05:53:48.418Z,18.50
2018-08-24T05:54:48.395Z,18.51
2018-08-24T05:55:48.438Z,18.53
2018-08-24T05:56:48.406Z,18.51
2018-08-24T05:57:48.329Z,18.45
2018-08-24T05:58:48.298Z,18.44
2018-08-24T05:59:48.274Z,18.42
2018-08-24T06:00:48.262Z,18.42
2018-08-24T06:01:48.227Z,18.38
2018-08-24T06:02:48.202Z,18.49
2018-08-24T06:03:48.179Z,18.47
2018-08-24T06:04:48.155Z,18.47
2018-08-24T06:05:48.174Z,18.51
2018-08-24T06:06:48.105Z,18.56
2018-08-24T06:07:48.085Z,18.63
2018-08-24T06:08:48.050Z,18.59
2018-08-24T06:09:48.030Z,18.66
2018-08-24T06:10:48.032Z,18.69
2018-08-24T06:11:47.980Z,18.74
2018-08-24T06:12:47.955Z,18.71
2018-08-24T06:13:47.934Z,18.75
2018-08-24T06:14:47.912Z,18.68
2018-08-24T06:15:47.914Z,18.86
2018-08-24T06:16:47.920Z,18.74
2018-08-24T06:17:47.836Z,18.71
2018-08-24T06:18:47.818Z,18.71
2018-08-24T06:19:47.802Z,18.68
2018-08-24T06:20:47.765Z,18.71
2018-08-24T06:21:47.745Z,18.71
2018-08-24T06:22:47.714Z,18.74
2018-08-24T06:23:47.690Z,18.71
2018-08-24T06:24:47.672Z,18.66
2018-08-24T06:25:47.639Z,18.57
2018-08-24T06:26:47.623Z,18.56
2018-08-24T06:27:47.597Z,18.60
2018-08-24T06:28:47.576Z,18.63
2018-08-24T06:29:47.577Z,18.60
2018-08-24T06:30:47.576Z,18.57
2018-08-24T06:31:47.498Z,18.61
2018-08-24T06:32:47.546Z,18.60
2018-08-24T06:33:47.446Z,18.56
2018-08-24T06:34:47.429Z,18.57
2018-08-24T06:35:47.403Z,18.49
2018-08-24T06:36:47.386Z,18.56
2018-08-24T06:37:47.361Z,18.53
2018-08-24T06:38:47.327Z,18.60
2018-08-24T06:39:47.304Z,18.60
2018-08-24T06:40:47.280Z,18.71
2018-08-24T06:41:47.266Z,18.66
2018-08-24T06:42:47.232Z,18.69
2018-08-24T06:43:47.210Z,18.71
2018-08-24T06:44:47.184Z,18.75
2018-08-24T06:45:47.159Z,18.72
2018-08-24T06:46:47.143Z,18.84
2018-08-24T06:47:47.173Z,18.86
2018-08-24T06:48:47.090Z,18.91
2018-08-24T06:49:47.089Z,18.96
2018-08-24T06:50:47.035Z,19.02
2018-08-24T06:51:47.020Z,19.12
2018-08-24T06:52:46.983Z,19.17
2018-08-24T06:53:47.015Z,19.07
2018-08-24T06:54:46.941Z,19.16
2018-08-24T06:55:46.916Z,19.16
2018-08-24T06:56:46.889Z,19.20
2018-08-24T06:57:46.868Z,19.19
2018-08-24T06:58:46.841Z,19.06
2018-08-24T06:59:47.863Z,19.13
2018-08-24T07:00:46.792Z,19.02
2018-08-24T07:01:46.772Z,19.07
2018-08-24T07:02:46.743Z,19.06
2018-08-24T07:03:46.724Z,18.96
2018-08-24T07:04:46.705Z,19.02
2018-08-24T07:05:46.718Z,18.87
2018-08-24T07:06:46.657Z,18.86
2018-08-24T07:07:46.623Z,18.69
2018-08-24T07:08:46.604Z,18.74
2018-08-24T07:09:46.575Z,18.68
2018-08-24T07:10:46.557Z,18.68
2018-08-24T07:11:46.541Z,18.68
2018-08-24T07:12:46.547Z,18.71
2018-08-24T07:13:46.477Z,18.65
2018-08-24T07:14:46.457Z,18.79
2018-08-24T07:15:46.431Z,18.74
2018-08-24T07:16:46.407Z,18.74
2018-08-24T07:17:46.381Z,18.78
2018-08-24T07:18:46.365Z,18.78
2018-08-24T07:19:46.330Z,18.72
2018-08-24T07:20:46.312Z,18.93
2018-08-24T07:21:46.283Z,18.87
2018-08-24T07:22:46.262Z,18.89
2018-08-24T07:23:46.241Z,18.84
2018-08-24T07:24:46.209Z,18.89
2018-08-24T07:25:46.188Z,18.87
2018-08-24T07:26:46.160Z,18.90
2018-08-24T07:27:46.138Z,18.82
2018-08-24T07:28:46.116Z,18.91
2018-08-24T07:29:46.089Z,18.97
2018-08-24T07:30:46.070Z,18.97
2018-08-24T07:31:46.043Z,19.06
2018-08-24T07:32:46.021Z,19.10
2018-08-24T07:33:45.996Z,19.07
2018-08-24T07:34:45.971Z,19.09
2018-08-24T07:35:45.943Z,18.96
2018-08-24T07:36:45.920Z,19.12
2018-08-24T07:37:45.903Z,18.91
2018-08-24T07:38:45.877Z,18.93
2018-08-24T07:39:45.843Z,18.96
2018-08-24T07:40:45.826Z,18.96
2018-08-24T07:41:45.847Z,19.00
2018-08-24T07:42:45.775Z,19.07
2018-08-24T07:43:45.754Z,19.06
2018-08-24T07:44:45.722Z,19.00
2018-08-24T07:45:45.700Z,19.06
2018-08-24T07:46:45.677Z,19.13
2018-08-24T07:47:45.660Z,19.16
2018-08-24T07:48:45.628Z,19.19
2018-08-24T07:49:45.605Z,19.16
2018-08-24T07:50:45.598Z,19.19
2018-08-24T07:51:45.556Z,19.30
2018-08-24T07:52:45.534Z,19.17
2018-08-24T07:53:45.513Z,19.23
2018-08-24T07:54:45.483Z,19.20
2018-08-24T07:55:45.455Z,19.31
2018-08-24T07:56:45.434Z,19.30
2018-08-24T07:57:45.416Z,19.19
2018-08-24T07:58:45.384Z,19.17
2018-08-24T07:59:45.355Z,19.05
2018-08-24T08:00:45.353Z,19.05
2018-08-24T08:01:45.315Z,19.00
2018-08-24T08:02:45.288Z,18.97
2018-08-24T08:03:45.269Z,18.86
2018-08-24T08:04:45.236Z,18.76
2018-08-24T08:05:45.217Z,18.68
2018-08-24T08:06:45.190Z,18.74
2018-08-24T08:07:45.188Z,18.76
2018-08-24T08:08:45.147Z,18.66
2018-08-24T08:09:45.116Z,18.53
2018-08-24T08:10:45.121Z,18.51
2018-08-24T08:11:45.096Z,18.49
2018-08-24T08:12:45.081Z,18.47
2018-08-24T08:13:45.026Z,18.44
2018-08-24T08:14:44.993Z,18.38
2018-08-24T08:15:44.977Z,18.35
2018-08-24T08:16:44.944Z,18.38
2018-08-24T08:17:44.923Z,18.24
2018-08-24T08:18:44.898Z,18.34
2018-08-24T08:19:44.869Z,18.36
2018-08-24T08:20:44.853Z,18.34
2018-08-24T08:21:44.820Z,18.42
2018-08-24T08:22:44.803Z,18.45
2018-08-24T08:23:44.769Z,18.31
2018-08-24T08:24:44.764Z,18.38
2018-08-24T08:25:44.722Z,18.34
2018-08-24T08:26:44.708Z,18.35
2018-08-24T08:27:44.673Z,18.39
2018-08-24T08:28:44.654Z,18.45
2018-08-24T08:29:44.626Z,18.38
2018-08-24T08:30:44.604Z,18.35
2018-08-24T08:31:44.575Z,18.35
2018-08-24T08:32:44.553Z,18.17
2018-08-24T08:33:44.531Z,18.26
2018-08-24T08:34:44.505Z,18.24
2018-08-24T08:35:44.478Z,18.17
2018-08-24T08:36:44.454Z,18.14
2018-08-24T08:37:44.430Z,18.08
2018-08-24T08:38:44.404Z,18.11
2018-08-24T08:39:44.377Z,18.20
2018-08-24T08:40:44.363Z,18.10
2018-08-24T08:41:44.336Z,18.16
2018-08-24T08:42:44.304Z,18.16
2018-08-24T08:43:44.284Z,18.08
2018-08-24T08:44:44.253Z,18.13
2018-08-24T08:45:44.236Z,18.23
2018-08-24T08:46:44.210Z,18.21
2018-08-24T08:47:44.184Z,18.32
2018-08-24T08:48:44.155Z,18.34
2018-08-24T08:49:44.129Z,18.32
2018-08-24T08:50:44.120Z,18.34
2018-08-24T08:51:44.083Z,18.35
2018-08-24T08:52:44.057Z,18.16
2018-08-24T08:53:44.035Z,18.17
2018-08-24T08:54:44.006Z,18.31
2018-08-24T08:55:43.983Z,18.34
2018-08-24T08:56:43.964Z,18.41
2018-08-24T08:57:43.939Z,18.51
2018-08-24T08:58:43.908Z,18.53
2018-08-24T08:59:43.890Z,18.60
2018-08-24T09:00:43.869Z,18.66
2018-08-24T09:01:43.839Z,18.63
2018-08-24T09:02:43.813Z,18.69
2018-08-24T09:03:43.795Z,18.66
2018-08-24T09:04:43.764Z,18.72
2018-08-24T09:05:43.741Z,18.74
2018-08-24T09:06:43.711Z,18.74
2018-08-24T09:07:43.693Z,18.71
2018-08-24T09:08:43.668Z,18.90
2018-08-24T09:09:43.637Z,18.89
2018-08-24T09:10:43.613Z,18.86
2018-08-24T09:11:43.589Z,18.81
2018-08-24T09:12:43.570Z,18.87
2018-08-24T09:13:43.541Z,18.87
2018-08-24T09:14:43.522Z,18.84
2018-08-24T09:15:43.503Z,18.86
2018-08-24T09:16:43.496Z,18.91
2018-08-24T09:17:43.444Z,18.97
2018-08-24T09:18:43.420Z,19.15
2018-08-24T09:19:43.396Z,19.19
2018-08-24T09:20:43.373Z,19.37
2018-08-24T09:21:43.351Z,19.43
2018-08-24T09:22:43.328Z,19.55
2018-08-24T09:23:43.314Z,19.53
2018-08-24T09:24:43.274Z,19.67
2018-08-24T09:25:43.308Z,19.74
2018-08-24T09:26:43.224Z,19.90
2018-08-24T09:27:43.208Z,19.86
2018-08-24T09:28:43.168Z,19.67
2018-08-24T09:29:43.148Z,19.60
2018-08-24T09:30:43.128Z,19.64
2018-08-24T09:31:43.098Z,19.65
2018-08-24T09:32:43.226Z,19.57
2018-08-24T09:33:43.051Z,19.57
2018-08-24T09:34:43.033Z,19.64
2018-08-24T09:35:43.012Z,19.43
2018-08-24T09:36:42.979Z,19.32
2018-08-24T09:37:42.956Z,19.16
2018-08-24T09:38:42.936Z,19.12
2018-08-24T09:39:42.909Z,19.07
2018-08-24T09:40:42.879Z,18.94
2018-08-24T09:41:42.857Z,18.89
2018-08-24T09:42:42.832Z,18.93
2018-08-24T09:43:42.808Z,18.90
2018-08-24T09:44:42.791Z,19.06
2018-08-24T09:45:42.761Z,19.15
2018-08-24T09:46:42.760Z,19.31
2018-08-24T09:47:42.712Z,19.50
2018-08-24T09:48:42.688Z,19.53
2018-08-24T09:49:42.661Z,19.57
2018-08-24T09:50:42.644Z,19.55
2018-08-24T09:51:42.615Z,19.50
2018-08-24T09:52:42.594Z,19.53
2018-08-24T09:53:42.564Z,19.40
2018-08-24T09:54:42.549Z,19.53
2018-08-24T09:55:42.516Z,19.52
2018-08-24T09:56:42.506Z,19.60
2018-08-24T09:57:42.470Z,19.57
2018-08-24T09:58:42.443Z,19.52
2018-08-24T09:59:42.430Z,19.46
2018-08-24T10:00:42.399Z,19.49
2018-08-24T10:01:42.379Z,19.53
2018-08-24T10:02:42.364Z,19.60
2018-08-24T10:03:42.326Z,19.52
2018-08-24T10:04:42.328Z,19.57
2018-08-24T10:05:42.273Z,19.60
2018-08-24T10:06:42.268Z,19.72
2018-08-24T10:07:42.226Z,19.74
2018-08-24T10:08:42.202Z,19.95
2018-08-24T10:09:42.221Z,20.00
2018-08-24T10:10:42.161Z,19.75
2018-08-24T10:11:42.134Z,19.63
2018-08-24T10:12:42.109Z,19.63
2018-08-24T10:13:42.083Z,19.42
2018-08-24T10:14:42.060Z,19.55
2018-08-24T10:15:42.029Z,19.46
2018-08-24T10:16:42.013Z,19.55
2018-08-24T10:17:41.988Z,19.32
2018-08-24T10:18:41.956Z,19.32
2018-08-24T10:19:41.932Z,19.24
2018-08-24T10:20:41.912Z,19.30
2018-08-24T10:21:41.882Z,19.25
2018-08-24T10:22:41.868Z,19.34
2018-08-24T10:23:41.848Z,19.35
2018-08-24T10:24:41.822Z,19.45
2018-08-24T10:25:41.792Z,19.42
2018-08-24T10:26:41.770Z,19.42
2018-08-24T10:27:41.744Z,19.56
2018-08-24T10:28:41.717Z,19.50
2018-08-24T10:29:41.759Z,19.53
2018-08-24T10:30:41.666Z,19.55
2018-08-24T10:31:41.648Z,19.57
2018-08-24T10:32:41.620Z,19.70
2018-08-24T10:33:41.647Z,19.71
2018-08-24T10:34:41.581Z,19.79
2018-08-24T10:35:41.542Z,19.86
2018-08-24T10:36:41.526Z,19.89
2018-08-24T10:37:41.502Z,19.97
2018-08-24T10:38:41.475Z,19.85
2018-08-24T10:39:41.448Z,20.02
2018-08-24T10:40:41.483Z,19.97
2018-08-24T10:41:41.404Z,20.04
2018-08-24T10:42:41.374Z,20.16
2018-08-24T10:43:41.357Z,20.19
2018-08-24T10:44:41.326Z,20.18
2018-08-24T10:45:41.307Z,20.23
2018-08-24T10:46:41.278Z,20.49
2018-08-24T10:47:41.267Z,20.38
2018-08-24T10:48:41.229Z,20.54
2018-08-24T10:49:41.211Z,20.56
2018-08-24T10:50:41.182Z,20.67
2018-08-24T10:51:41.167Z,20.68
2018-08-24T10:52:41.132Z,20.74
2018-08-24T10:53:41.111Z,20.78
2018-08-24T10:54:41.093Z,20.79
2018-08-24T10:55:41.085Z,20.98
2018-08-24T10:56:41.038Z,20.91
2018-08-24T10:57:41.014Z,20.96
2018-08-24T10:58:40.997Z,21.00
2018-08-24T10:59:40.988Z,21.18
2018-08-24T11:00:40.950Z,21.06
2018-08-24T11:01:40.920Z,21.23
2018-08-24T11:02:40.897Z,21.28
2018-08-24T11:03:40.874Z,21.36
2018-08-24T11:04:40.852Z,21.49
2018-08-24T11:05:40.842Z,21.51
2018-08-24T11:06:40.805Z,21.46
2018-08-24T11:07:40.853Z,21.61
2018-08-24T11:08:40.752Z,21.58
2018-08-24T11:09:40.740Z,21.59
2018-08-24T11:10:40.706Z,21.51
2018-08-24T11:11:40.683Z,21.59
2018-08-24T11:12:40.661Z,21.70
2018-08-24T11:13:40.635Z,21.74
2018-08-24T11:14:40.607Z,21.82
2018-08-24T11:15:40.595Z,21.67
2018-08-24T11:16:40.586Z,21.74
2018-08-24T11:17:40.543Z,21.77
2018-08-24T11:18:40.525Z,21.53
2018-08-24T11:19:40.495Z,21.22
2018-08-24T11:20:40.476Z,20.96
2018-08-24T11:21:40.453Z,20.96
2018-08-24T11:22:40.423Z,20.83
2018-08-24T11:23:40.403Z,20.81
2018-08-24T11:24:40.385Z,20.91
2018-08-24T11:25:40.354Z,20.82
2018-08-24T11:26:40.344Z,20.82
2018-08-24T11:27:40.314Z,20.79
2018-08-24T11:28:40.375Z,20.86
2018-08-24T11:29:40.265Z,20.68
2018-08-24T11:30:40.237Z,20.46
2018-08-24T11:31:40.218Z,20.40
2018-08-24T11:32:40.196Z,20.34
2018-08-24T11:33:40.172Z,20.34
2018-08-24T11:34:40.142Z,20.26
2018-08-24T11:35:40.120Z,20.34
2018-08-24T11:36:40.099Z,20.53
2018-08-24T11:37:40.075Z,20.49
2018-08-24T11:38:40.052Z,20.53
2018-08-24T11:39:40.029Z,20.53
2018-08-24T11:40:40.004Z,20.64
2018-08-24T11:41:40.036Z,20.74
2018-08-24T11:42:39.954Z,20.71
2018-08-24T11:43:39.935Z,20.85
2018-08-24T11:44:39.955Z,20.79
2018-08-24T11:45:39.888Z,20.79
2018-08-24T11:46:39.860Z,20.93
2018-08-24T11:47:39.847Z,20.81
2018-08-24T11:48:39.809Z,21.01
2018-08-24T11:49:39.791Z,20.98
2018-08-24T11:50:39.764Z,21.11
2018-08-24T11:51:39.742Z,21.04
2018-08-24T11:52:39.716Z,20.86
2018-08-24T11:53:39.691Z,20.74
2018-08-24T11:54:39.673Z,20.66
2018-08-24T11:55:39.644Z,20.67
2018-08-24T11:56:39.622Z,20.61
2018-08-24T11:57:39.597Z,20.60
2018-08-24T11:58:39.579Z,20.60
2018-08-24T11:59:39.559Z,20.71
2018-08-24T12:00:39.531Z,20.67
2018-08-24T12:01:39.501Z,20.81
2018-08-24T12:02:39.483Z,20.88
2018-08-24T12:03:39.453Z,20.78
2018-08-24T12:04:39.438Z,20.88
2018-08-24T12:05:39.406Z,20.90
2018-08-24T12:06:39.389Z,20.79
2018-08-24T12:07:39.360Z,21.00
2018-08-24T12:08:39.348Z,21.06
2018-08-24T12:09:39.310Z,21.11
2018-08-24T12:10:39.295Z,21.15
2018-08-24T12:11:39.268Z,21.11
2018-08-24T12:12:39.321Z,21.12
2018-08-24T12:13:39.255Z,21.12
2018-08-24T12:14:39.192Z,21.08
2018-08-24T12:15:39.169Z,21.04
2018-08-24T12:16:39.150Z,21.01
2018-08-24T12:17:39.123Z,21.00
2018-08-24T12:18:39.098Z,21.00
2018-08-24T12:19:39.082Z,21.13
2018-08-24T12:20:39.058Z,21.12
2018-08-24T12:21:39.102Z,21.22
2018-08-24T12:22:39.005Z,21.28
2018-08-24T12:23:38.978Z,21.38
2018-08-24T12:24:38.962Z,21.36
2018-08-24T12:25:38.933Z,21.40
2018-08-24T12:26:38.913Z,21.49
2018-08-24T12:27:38.892Z,21.52
2018-08-24T12:28:38.862Z,21.52
2018-08-24T12:29:38.841Z,21.46
2018-08-24T12:30:38.825Z,21.31
2018-08-24T12:31:38.799Z,21.16
2018-08-24T12:32:38.786Z,21.13
2018-08-24T12:33:38.775Z,21.03
2018-08-24T12:34:38.739Z,21.09
2018-08-24T12:35:38.697Z,21.30
2018-08-24T12:36:38.679Z,21.31
2018-08-24T12:37:38.656Z,21.06
2018-08-24T12:38:38.626Z,21.09
2018-08-24T12:39:38.604Z,21.04
2018-08-24T12:40:38.582Z,21.08
2018-08-24T12:41:38.565Z,20.96
2018-08-24T12:42:38.531Z,21.00
2018-08-24T12:43:38.601Z,20.96
2018-08-24T12:44:38.488Z,20.98
2018-08-24T12:45:38.464Z,21.00
2018-08-24T12:46:38.443Z,21.08
2018-08-24T12:47:38.419Z,21.06
2018-08-24T12:48:38.394Z,21.12
2018-08-24T12:49:38.367Z,21.22
2018-08-24T12:50:38.348Z,21.23
2018-08-24T12:51:38.323Z,21.28
2018-08-24T12:52:38.300Z,21.36